createdAt,value
2017-12-10T00:02:21.420Z,92.30
2017-12-10T00:04:48.878Z,91.90
2017-12-10T00:07:16.387Z,92.50
2017-12-10T00:09:43.893Z,92.50
2017-12-10T00:12:11.499Z,92.00
2017-12-10T00:14:38.938Z,91.80
2017-12-10T00:17:07.161Z,91.80
2017-12-10T00:19:34.600Z,91.70
2017-12-10T00:22:02.036Z,92.00
2017-12-10T00:24:29.499Z,92.00
2017-12-10T00:26:56.988Z,91.30
2017-12-10T00:29:24.426Z,91.10
2017-12-10T00:31:51.893Z,91.10
2017-12-10T00:34:19.330Z,91.70
2017-12-10T00:36:46.805Z,91.40
2017-12-10T00:39:14.239Z,91.70
2017-12-10T00:41:41.678Z,91.50
2017-12-10T00:44:09.931Z,91.60
2017-12-10T00:46:37.353Z,91.60
2017-12-10T00:49:04.810Z,91.80
2017-12-10T00:51:32.279Z,91.80
2017-12-10T00:53:59.724Z,91.80
2017-12-10T00:56:27.186Z,91.60
2017-12-10T00:58:54.656Z,91.50
2017-12-10T01:01:22.095Z,91.40
2017-12-10T01:03:49.591Z,91.50
2017-12-10T01:06:18.621Z,91.50
2017-12-10T01:08:46.838Z,91.30
2017-12-10T01:11:14.285Z,91.30
2017-12-10T01:13:41.740Z,91.10
2017-12-10T01:16:09.213Z,91.40
2017-12-10T01:18:36.659Z,91.90
2017-12-10T01:21:04.218Z,92.10
2017-12-10T01:23:31.672Z,91.50
2017-12-10T01:25:59.090Z,91.60
2017-12-10T01:28:27.321Z,91.60
2017-12-10T01:30:54.793Z,91.60
2017-12-10T01:33:22.237Z,91.40
2017-12-10T01:35:49.722Z,91.50
2017-12-10T01:38:17.157Z,91.10
2017-12-10T01:40:44.631Z,91.00
2017-12-10T01:43:12.105Z,91.40
2017-12-10T01:45:39.533Z,91.30
2017-12-10T01:48:06.998Z,91.50
2017-12-10T01:50:34.544Z,91.50
2017-12-10T01:53:04.978Z,91.30
2017-12-10T01:55:32.450Z,91.00
2017-12-10T01:57:59.900Z,91.60
2017-12-10T02:00:27.474Z,91.20
2017-12-10T02:02:54.937Z,91.20
2017-12-10T02:05:22.400Z,91.30
2017-12-10T02:07:49.812Z,91.30
2017-12-10T02:10:17.398Z,91.50
2017-12-10T02:12:44.881Z,91.90
2017-12-10T02:15:12.359Z,92.00
2017-12-10T02:17:39.873Z,92.10
2017-12-10T02:20:07.342Z,92.10
2017-12-10T02:22:34.789Z,91.80
2017-12-10T02:25:02.234Z,91.50
2017-12-10T02:27:29.686Z,91.70
2017-12-10T02:29:57.166Z,92.00
2017-12-10T02:32:24.625Z,92.10
2017-12-10T02:34:52.083Z,92.00
2017-12-10T02:37:19.520Z,92.00
2017-12-10T02:39:47.009Z,91.90
2017-12-10T02:42:14.440Z,91.90
2017-12-10T02:44:41.897Z,91.70
2017-12-10T02:47:09.363Z,91.80
2017-12-10T02:49:36.816Z,91.90
2017-12-10T02:52:04.293Z,92.30
2017-12-10T02:54:31.736Z,92.50
2017-12-10T02:56:59.192Z,93.10
2017-12-10T02:59:26.645Z,93.40
2017-12-10T03:01:54.113Z,93.50
2017-12-10T03:04:21.592Z,93.50
2017-12-10T03:06:49.050Z,93.40
2017-12-10T03:09:16.493Z,93.40
2017-12-10T03:11:43.937Z,93.20
2017-12-10T03:14:11.489Z,93.80
2017-12-10T03:16:38.909Z,93.80
2017-12-10T03:19:06.345Z,94.30
2017-12-10T03:21:37.067Z,94.20
2017-12-10T03:24:04.538Z,94.20
2017-12-10T03:26:31.985Z,94.00
2017-12-10T03:28:59.440Z,94.10
2017-12-10T03:31:26.902Z,94.00
2017-12-10T03:33:55.105Z,94.50
2017-12-10T03:36:22.541Z,94.50
2017-12-10T03:38:50.741Z,94.40
2017-12-10T03:41:18.181Z,94.40
2017-12-10T03:43:46.374Z,94.90
2017-12-10T03:46:13.813Z,94.90
2017-12-10T03:48:42.020Z,95.30
2017-12-10T03:51:09.461Z,95.30
2017-12-10T03:53:36.936Z,95.00
2017-12-10T03:56:04.376Z,95.30
2017-12-10T03:58:31.817Z,94.70
2017-12-10T04:01:00.030Z,94.20
2017-12-10T04:03:27.491Z,94.20
2017-12-10T04:05:55.013Z,94.80
2017-12-10T04:08:23.265Z,94.40
2017-12-10T04:10:50.750Z,94.30
2017-12-10T04:13:18.202Z,94.30
2017-12-10T04:15:46.411Z,95.70
2017-12-10T04:18:13.848Z,95.30
2017-12-10T04:20:41.309Z,95.20
2017-12-10T04:23:08.769Z,95.40
2017-12-10T04:25:36.245Z,95.50
2017-12-10T04:28:03.690Z,95.50
2017-12-10T04:30:31.171Z,95.40
2017-12-10T04:32:58.580Z,95.50
2017-12-10T04:35:26.781Z,95.00
2017-12-10T04:37:54.233Z,95.00
2017-12-10T04:40:22.420Z,95.70
2017-12-10T04:42:49.874Z,95.70
2017-12-10T04:45:17.326Z,95.20
2017-12-10T04:47:44.756Z,95.40
2017-12-10T04:50:12.970Z,95.90
2017-12-10T04:52:40.426Z,95.90
2017-12-10T04:55:07.861Z,96.30
2017-12-10T04:57:35.332Z,95.60
2017-12-10T05:00:02.806Z,95.10
2017-12-10T05:02:30.273Z,95.30
2017-12-10T05:04:57.721Z,95.30
2017-12-10T05:07:25.167Z,96.20
2017-12-10T05:09:52.635Z,95.90
2017-12-10T05:12:20.086Z,95.90
2017-12-10T05:14:47.550Z,95.70
2017-12-10T05:17:14.988Z,95.70
2017-12-10T05:19:42.578Z,95.70
2017-12-10T05:22:10.016Z,95.90
2017-12-10T05:24:38.213Z,95.90
2017-12-10T05:27:05.690Z,96.40
2017-12-10T05:29:33.109Z,96.10
2017-12-10T05:32:00.590Z,96.00
2017-12-10T05:34:28.029Z,96.10
2017-12-10T05:36:55.509Z,95.80
2017-12-10T05:39:22.968Z,95.70
2017-12-10T05:41:50.425Z,95.90
2017-12-10T05:44:17.885Z,95.90
2017-12-10T05:46:45.325Z,95.70
2017-12-10T05:49:12.785Z,95.30
2017-12-10T05:51:40.246Z,95.70
2017-12-10T05:54:07.724Z,96.00
2017-12-10T05:56:35.165Z,95.30
2017-12-10T05:59:02.649Z,94.80
2017-12-10T06:01:30.110Z,95.20
2017-12-10T06:03:57.561Z,95.10
2017-12-10T06:06:25.811Z,95.00
2017-12-10T06:08:53.273Z,94.90
2017-12-10T06:11:20.732Z,94.40
2017-12-10T06:13:48.193Z,94.40
2017-12-10T06:16:16.601Z,94.70
2017-12-10T06:18:44.045Z,94.40
2017-12-10T06:21:11.517Z,93.60
2017-12-10T06:23:38.952Z,94.30
2017-12-10T06:26:06.442Z,93.60
2017-12-10T06:28:34.672Z,92.60
2017-12-10T06:31:02.137Z,92.60
2017-12-10T06:33:29.572Z,93.40
2017-12-10T06:35:57.034Z,93.10
2017-12-10T06:38:24.589Z,92.80
2017-12-10T06:40:52.035Z,92.40
2017-12-10T06:43:19.604Z,92.70
2017-12-10T06:45:47.076Z,92.90
2017-12-10T06:48:14.537Z,93.10
2017-12-10T06:50:41.988Z,93.10
2017-12-10T06:53:09.450Z,92.80
2017-12-10T06:55:36.909Z,92.90
2017-12-10T06:58:05.115Z,92.80
2017-12-10T07:00:32.573Z,92.70
2017-12-10T07:03:00.033Z,93.30
2017-12-10T07:05:27.473Z,93.00
2017-12-10T07:07:54.959Z,92.80
2017-12-10T07:10:22.409Z,92.40
2017-12-10T07:12:49.895Z,92.10
2017-12-10T07:15:18.124Z,91.70
2017-12-10T07:17:45.593Z,91.70
2017-12-10T07:20:13.063Z,91.90
2017-12-10T07:22:41.312Z,92.10
2017-12-10T07:25:08.748Z,92.10
2017-12-10T07:27:36.211Z,92.20
2017-12-10T07:30:03.669Z,91.30
2017-12-10T07:32:31.129Z,91.20
2017-12-10T07:34:58.584Z,91.00
2017-12-10T07:37:26.045Z,90.90
2017-12-10T07:39:53.513Z,90.60
2017-12-10T07:42:21.721Z,91.50
2017-12-10T07:44:49.955Z,90.80
2017-12-10T07:47:17.427Z,90.80
2017-12-10T07:49:44.902Z,91.50
2017-12-10T07:52:13.131Z,91.20
2017-12-10T07:54:40.548Z,91.20
2017-12-10T07:57:08.904Z,92.20
2017-12-10T07:59:37.296Z,92.20
2017-12-10T08:02:04.731Z,92.60
2017-12-10T08:04:32.214Z,92.60
2017-12-10T08:06:59.649Z,92.40
2017-12-10T08:09:27.152Z,92.00
2017-12-10T08:11:55.380Z,92.40
2017-12-10T08:14:22.840Z,92.40
2017-12-10T08:16:50.297Z,92.00
2017-12-10T08:19:17.781Z,92.20
2017-12-10T08:21:45.250Z,92.70
2017-12-10T08:24:13.484Z,92.00
2017-12-10T08:26:41.061Z,92.00
2017-12-10T08:29:08.540Z,92.00
2017-12-10T08:31:35.984Z,91.90
2017-12-10T08:34:03.432Z,92.00
2017-12-10T08:36:31.660Z,91.70
2017-12-10T08:38:59.093Z,91.60
2017-12-10T08:41:27.337Z,92.00
2017-12-10T08:43:54.794Z,92.00
2017-12-10T08:46:22.290Z,92.20
2017-12-10T08:48:50.486Z,92.60
2017-12-10T08:51:17.916Z,92.60
2017-12-10T08:53:46.114Z,92.20
2017-12-10T08:56:13.569Z,92.10
2017-12-10T08:58:41.858Z,92.40
2017-12-10T09:01:09.284Z,92.50
2017-12-10T09:03:36.767Z,92.20
2017-12-10T09:06:04.257Z,91.80
2017-12-10T09:08:31.754Z,91.80
2017-12-10T09:10:59.125Z,92.00
2017-12-10T09:13:26.584Z,92.00
2017-12-10T09:15:54.166Z,91.40
2017-12-10T09:18:21.684Z,92.00
2017-12-10T09:20:49.156Z,91.70
2017-12-10T09:23:17.013Z,91.80
2017-12-10T09:25:45.204Z,92.10
2017-12-10T09:28:12.672Z,92.10
2017-12-10T09:30:40.137Z,92.00
2017-12-10T09:33:07.589Z,92.10
2017-12-10T09:35:35.036Z,92.00
2017-12-10T09:38:03.237Z,91.90
2017-12-10T09:40:30.682Z,91.90
2017-12-10T09:42:58.140Z,91.50
2017-12-10T09:45:25.623Z,91.20
2017-12-10T09:47:53.083Z,91.10
2017-12-10T09:50:20.485Z,90.70
2017-12-10T09:52:47.975Z,90.90
2017-12-10T09:55:15.461Z,90.60
2017-12-10T09:57:42.920Z,90.30
2017-12-10T10:00:10.363Z,90.30
2017-12-10T10:02:37.811Z,90.10
2017-12-10T10:05:05.280Z,89.60
2017-12-10T10:07:32.746Z,90.20
2017-12-10T10:10:00.186Z,89.70
2017-12-10T10:12:27.654Z,90.10
2017-12-10T10:14:55.103Z,89.80
2017-12-10T10:17:22.520Z,89.40
2017-12-10T10:19:50.763Z,89.50
2017-12-10T10:22:18.201Z,89.50
2017-12-10T10:24:45.634Z,89.10
2017-12-10T10:27:13.121Z,88.10
2017-12-10T10:29:40.566Z,88.30
2017-12-10T10:32:08.065Z,87.20
2017-12-10T10:34:36.289Z,87.40
2017-12-10T10:37:03.753Z,87.20
2017-12-10T10:39:31.207Z,86.50
2017-12-10T10:41:58.666Z,86.80
2017-12-10T10:44:26.224Z,87.60
2017-12-10T10:46:53.823Z,87.80
2017-12-10T10:49:22.414Z,87.80
2017-12-10T10:51:49.948Z,87.30
2017-12-10T10:54:17.321Z,86.40
2017-12-10T10:56:44.753Z,87.30
2017-12-10T10:59:12.258Z,86.20
2017-12-10T11:01:39.670Z,86.20
2017-12-10T11:04:07.122Z,86.10
2017-12-10T11:06:34.763Z,85.90
2017-12-10T11:09:02.225Z,87.40
2017-12-10T11:11:29.646Z,87.40
2017-12-10T11:13:57.858Z,87.60
2017-12-10T11:16:25.285Z,87.60
2017-12-10T11:18:53.496Z,88.10
2017-12-10T11:21:21.058Z,88.00
2017-12-10T11:23:48.513Z,88.00
2017-12-10T11:26:15.937Z,87.80
2017-12-10T11:28:44.130Z,87.00
2017-12-10T11:31:11.636Z,87.00
2017-12-10T11:33:39.096Z,86.70
2017-12-10T11:36:06.551Z,86.40
2017-12-10T11:38:34.030Z,87.00
2017-12-10T11:41:01.482Z,87.80
2017-12-10T11:43:28.933Z,87.50
2017-12-10T11:45:56.390Z,88.80
2017-12-10T11:48:23.853Z,90.00
2017-12-10T11:50:51.321Z,91.10
2017-12-10T11:53:18.774Z,91.40
2017-12-10T11:55:46.228Z,91.90
2017-12-10T11:58:13.658Z,92.40
2017-12-10T12:00:41.107Z,93.10
2017-12-10T12:03:08.547Z,93.20
2017-12-10T12:05:36.026Z,93.50
2017-12-10T12:08:03.481Z,93.90
2017-12-10T12:10:30.914Z,94.10
2017-12-10T12:12:58.356Z,93.90
2017-12-10T12:15:26.578Z,93.50
2017-12-10T12:17:54.016Z,93.50
2017-12-10T12:20:21.473Z,93.70
2017-12-10T12:22:48.921Z,94.10
2017-12-10T12:25:17.309Z,94.40
2017-12-10T12:27:44.776Z,95.10
2017-12-10T12:30:12.235Z,95.20
2017-12-10T12:32:39.689Z,95.20
2017-12-10T12:35:07.166Z,95.10
2017-12-10T12:37:34.593Z,95.10
2017-12-10T12:40:02.040Z,95.10
2017-12-10T12:42:29.480Z,95.50
2017-12-10T12:44:57.692Z,95.50
2017-12-10T12:47:25.150Z,95.50
2017-12-10T12:49:52.637Z,95.70
2017-12-10T12:52:20.061Z,96.20
2017-12-10T12:54:47.528Z,95.90
2017-12-10T12:57:14.998Z,95.70
2017-12-10T12:59:42.463Z,95.70
2017-12-10T13:02:09.909Z,95.40
2017-12-10T13:04:37.346Z,95.60
2017-12-10T13:07:04.798Z,95.60
2017-12-10T13:09:32.384Z,95.30
2017-12-10T13:11:59.877Z,95.70
2017-12-10T13:14:27.328Z,95.50
2017-12-10T13:16:54.762Z,95.80
2017-12-10T13:19:22.222Z,95.80
2017-12-10T13:21:49.697Z,95.70
2017-12-10T13:24:17.375Z,95.20
2017-12-10T13:26:44.830Z,95.50
2017-12-10T13:29:13.167Z,95.40
2017-12-10T13:31:40.580Z,95.50
2017-12-10T13:34:08.034Z,95.50
2017-12-10T13:36:35.460Z,95.90
2017-12-10T13:39:02.891Z,95.80
2017-12-10T13:41:30.321Z,95.80
2017-12-10T13:43:57.745Z,95.40
2017-12-10T13:46:25.194Z,95.00
2017-12-10T13:48:52.656Z,95.10
2017-12-10T13:51:20.179Z,95.70
2017-12-10T13:53:47.601Z,96.40
2017-12-10T13:56:15.043Z,97.00
2017-12-10T13:58:43.243Z,97.30
2017-12-10T14:01:12.282Z,96.90
2017-12-10T14:03:39.782Z,96.90
2017-12-10T14:06:07.232Z,96.80
2017-12-10T14:08:35.442Z,96.80
2017-12-10T14:11:02.876Z,96.70
2017-12-10T14:13:31.089Z,96.40
2017-12-10T14:15:58.531Z,96.40
2017-12-10T14:18:25.985Z,96.50
2017-12-10T14:20:53.425Z,96.30
2017-12-10T14:23:21.629Z,96.30
2017-12-10T14:25:49.101Z,96.30
2017-12-10T14:28:17.475Z,96.40
2017-12-10T14:30:44.908Z,96.80
2017-12-10T14:33:12.353Z,96.70
2017-12-10T14:35:40.553Z,97.90
2017-12-10T14:38:07.985Z,97.90
2017-12-10T14:40:36.186Z,97.70
2017-12-10T14:43:03.642Z,97.70
2017-12-10T14:45:31.095Z,97.80
2017-12-10T14:47:58.549Z,97.60
2017-12-10T14:50:26.018Z,97.40
2017-12-10T14:52:53.483Z,97.30
2017-12-10T14:55:20.933Z,97.00
2017-12-10T14:57:48.404Z,96.90
2017-12-10T15:00:15.854Z,96.80
2017-12-10T15:02:43.301Z,96.90
2017-12-10T15:05:10.769Z,97.40
2017-12-10T15:07:38.221Z,97.70
2017-12-10T15:10:05.717Z,97.30
2017-12-10T15:12:33.135Z,97.60
2017-12-10T15:15:00.582Z,97.60
2017-12-10T15:17:28.037Z,97.30
2017-12-10T15:19:55.481Z,97.70
2017-12-10T15:22:23.697Z,97.60
2017-12-10T15:24:51.115Z,97.60
2017-12-10T15:27:18.605Z,97.60
2017-12-10T15:29:46.033Z,97.60
2017-12-10T15:32:13.529Z,97.50
2017-12-10T15:34:41.039Z,97.70
2017-12-10T15:37:08.457Z,97.90
2017-12-10T15:39:35.921Z,98.40
2017-12-10T15:42:03.356Z,98.40
2017-12-10T15:44:30.802Z,98.50
2017-12-10T15:46:58.277Z,98.60
2017-12-10T15:49:25.726Z,98.90
2017-12-10T15:51:53.197Z,99.10
2017-12-10T15:54:20.682Z,99.00
2017-12-10T15:56:48.120Z,98.70
2017-12-10T15:59:15.577Z,98.60
2017-12-10T16:01:43.029Z,98.60
2017-12-10T16:04:10.482Z,98.50
2017-12-10T16:06:38.055Z,98.90
2017-12-10T16:09:05.518Z,99.00
2017-12-10T16:11:32.979Z,99.00
2017-12-10T16:14:00.463Z,99.10
2017-12-10T16:16:27.926Z,99.30
2017-12-10T16:18:55.361Z,99.30
2017-12-10T16:21:22.825Z,99.10
2017-12-10T16:23:50.977Z,99.60
2017-12-10T16:26:18.422Z,99.20
2017-12-10T16:28:45.853Z,99.10
2017-12-10T16:31:13.290Z,99.10
2017-12-10T16:33:41.485Z,99.30
2017-12-10T16:36:08.929Z,99.70
2017-12-10T16:38:36.400Z,99.20
2017-12-10T16:41:03.806Z,99.20
2017-12-10T16:43:31.264Z,99.00
2017-12-10T16:45:58.738Z,99.30
2017-12-10T16:48:26.934Z,98.60
2017-12-10T16:50:54.396Z,98.60
2017-12-10T16:53:21.845Z,98.10
2017-12-10T16:55:50.042Z,97.60
2017-12-10T16:58:18.514Z,98.20
2017-12-10T17:00:45.993Z,98.10
2017-12-10T17:03:13.428Z,98.20
2017-12-10T17:05:41.658Z,98.00
2017-12-10T17:08:09.086Z,98.00
2017-12-10T17:10:36.525Z,97.70
2017-12-10T17:13:03.965Z,97.60
2017-12-10T17:15:31.442Z,97.00
2017-12-10T17:17:58.881Z,96.70
2017-12-10T17:20:26.369Z,97.10
2017-12-10T17:22:53.780Z,97.10
2017-12-10T17:25:21.978Z,97.20
2017-12-10T17:27:49.455Z,97.20
2017-12-10T17:30:17.820Z,96.60
2017-12-10T17:32:45.279Z,97.10
2017-12-10T17:35:12.745Z,96.50
2017-12-10T17:37:40.194Z,96.20
2017-12-10T17:40:07.662Z,96.00
2017-12-10T17:42:35.937Z,95.70
2017-12-10T17:45:03.398Z,96.30
2017-12-10T17:47:30.853Z,96.30
2017-12-10T17:49:58.313Z,96.20
2017-12-10T17:52:25.769Z,96.80
2017-12-10T17:54:53.225Z,96.80
2017-12-10T17:57:20.661Z,96.40
2017-12-10T17:59:48.076Z,96.60
2017-12-10T18:02:15.539Z,96.00
2017-12-10T18:04:42.969Z,96.20
2017-12-10T18:07:11.218Z,96.30
2017-12-10T18:09:38.641Z,95.90
2017-12-10T18:12:06.073Z,95.30
2017-12-10T18:14:33.523Z,95.10
2017-12-10T18:17:00.981Z,94.90
2017-12-10T18:19:28.432Z,94.80
2017-12-10T18:21:55.889Z,94.80
2017-12-10T18:24:24.355Z,94.90
2017-12-10T18:26:51.929Z,94.90
2017-12-10T18:29:19.414Z,94.60
2017-12-10T18:31:46.851Z,95.10
2017-12-10T18:34:15.122Z,94.60
2017-12-10T18:36:42.597Z,94.80
2017-12-10T18:39:10.029Z,94.70
2017-12-10T18:41:37.491Z,94.60
2017-12-10T18:44:04.955Z,94.10
2017-12-10T18:46:32.425Z,94.20
2017-12-10T18:48:59.890Z,94.60
2017-12-10T18:51:27.367Z,94.80
2017-12-10T18:53:54.830Z,94.50
2017-12-10T18:56:22.284Z,94.80
2017-12-10T18:58:49.744Z,94.60
2017-12-10T19:01:18.105Z,94.80
2017-12-10T19:03:45.798Z,94.60
2017-12-10T19:06:14.001Z,94.70
2017-12-10T19:08:41.469Z,94.70
2017-12-10T19:11:08.947Z,94.70
2017-12-10T19:13:36.404Z,95.20
2017-12-10T19:16:03.858Z,95.20
2017-12-10T19:18:31.320Z,95.60
2017-12-10T19:20:59.300Z,95.70
2017-12-10T19:23:26.755Z,95.10
2017-12-10T19:25:54.259Z,94.60
2017-12-10T19:28:23.462Z,94.40
2017-12-10T19:30:51.650Z,94.40
2017-12-10T19:33:19.093Z,94.40
2017-12-10T19:35:46.567Z,94.30
2017-12-10T19:38:14.017Z,94.00
2017-12-10T19:40:41.461Z,94.00
2017-12-10T19:43:08.936Z,93.90
2017-12-10T19:45:37.109Z,94.50
2017-12-10T19:48:04.581Z,94.50
2017-12-10T19:50:32.009Z,94.10
2017-12-10T19:52:59.464Z,94.30
2017-12-10T19:55:27.676Z,94.90
2017-12-10T19:57:55.128Z,94.80
2017-12-10T20:00:22.553Z,95.20
2017-12-10T20:02:50.014Z,95.80
2017-12-10T20:05:18.165Z,96.30
2017-12-10T20:07:45.626Z,97.00
2017-12-10T20:10:13.049Z,97.60
2017-12-10T20:12:40.497Z,97.90
2017-12-10T20:15:07.950Z,97.60
2017-12-10T20:17:35.393Z,97.70
2017-12-10T20:20:02.860Z,97.40
2017-12-10T20:22:30.318Z,97.00
2017-12-10T20:24:57.749Z,97.00
2017-12-10T20:27:26.343Z,97.20
2017-12-10T20:29:54.526Z,96.60
2017-12-10T20:32:23.254Z,96.60
2017-12-10T20:34:50.865Z,96.30
2017-12-10T20:37:19.725Z,96.20
2017-12-10T20:39:47.231Z,96.20
2017-12-10T20:42:14.692Z,96.20
2017-12-10T20:44:42.147Z,96.40
2017-12-10T20:47:09.614Z,96.10
2017-12-10T20:49:37.068Z,96.70
2017-12-10T20:52:04.517Z,97.60
2017-12-10T20:54:31.981Z,98.40
2017-12-10T20:56:59.471Z,99.70
2017-12-10T20:59:26.929Z,99.90
2017-12-10T21:01:54.366Z,99.90
2017-12-10T21:04:21.821Z,99.90
2017-12-10T21:06:49.300Z,99.90
2017-12-10T21:09:16.773Z,99.90
2017-12-10T21:11:44.233Z,99.90
2017-12-10T21:14:11.688Z,99.90
2017-12-10T21:16:39.136Z,99.90
2017-12-10T21:19:06.564Z,99.60
2017-12-10T21:21:34.033Z,98.70
2017-12-10T21:24:01.489Z,99.10
2017-12-10T21:26:28.963Z,99.30
2017-12-10T21:28:56.409Z,99.60
2017-12-10T21:31:23.848Z,98.60
2017-12-10T21:33:51.303Z,97.90
2017-12-10T21:36:18.781Z,98.60
2017-12-10T21:38:46.252Z,98.30
2017-12-10T21:41:13.733Z,97.80
2017-12-10T21:43:41.184Z,97.80
2017-12-10T21:46:08.624Z,97.70
2017-12-10T21:48:36.097Z,96.70
2017-12-10T21:51:03.567Z,97.00
2017-12-10T21:53:31.010Z,96.60
2017-12-10T21:55:58.480Z,96.40
2017-12-10T21:58:25.925Z,95.90
2017-12-10T22:00:53.389Z,96.00
2017-12-10T22:03:20.844Z,95.70
2017-12-10T22:05:48.277Z,95.50
2017-12-10T22:08:15.810Z,95.60
2017-12-10T22:10:43.269Z,95.50
2017-12-10T22:13:10.702Z,94.80
2017-12-10T22:15:38.902Z,95.70
2017-12-10T22:18:06.344Z,95.70
2017-12-10T22:20:33.776Z,95.60
2017-12-10T22:23:02.002Z,95.40
2017-12-10T22:25:29.480Z,95.40
2017-12-10T22:27:56.940Z,95.30
2017-12-10T22:30:24.404Z,95.60
2017-12-10T22:32:51.890Z,96.20
2017-12-10T22:35:20.089Z,96.40
2017-12-10T22:37:47.530Z,96.10
2017-12-10T22:40:15.773Z,96.50
2017-12-10T22:42:43.237Z,96.50
2017-12-10T22:45:10.696Z,96.10
2017-12-10T22:47:38.155Z,96.60
2017-12-10T22:50:05.632Z,96.60
2017-12-10T22:52:33.075Z,96.90
2017-12-10T22:55:00.490Z,96.50
2017-12-10T22:57:27.925Z,96.90
2017-12-10T22:59:55.369Z,96.90
2017-12-10T23:02:23.585Z,97.60
2017-12-10T23:04:51.027Z,97.20
2017-12-10T23:07:18.472Z,96.20
2017-12-10T23:09:45.922Z,96.40
2017-12-10T23:12:13.385Z,96.50
2017-12-10T23:14:40.828Z,96.20
2017-12-10T23:17:09.048Z,96.30
2017-12-10T23:19:36.507Z,96.30
2017-12-10T23:22:03.965Z,96.20
2017-12-10T23:24:31.394Z,95.80
2017-12-10T23:26:58.849Z,95.40
2017-12-10T23:29:26.349Z,95.00
2017-12-10T23:31:53.782Z,94.90
2017-12-10T23:34:21.250Z,95.80
2017-12-10T23:36:48.734Z,94.90
2017-12-10T23:39:16.186Z,94.50
2017-12-10T23:41:43.657Z,94.10
2017-12-10T23:44:11.097Z,94.30
2017-12-10T23:46:38.545Z,94.80
2017-12-10T23:49:06.005Z,94.40
2017-12-10T23:51:33.433Z,93.80
2017-12-10T23:54:00.901Z,94.50
2017-12-10T23:56:28.392Z,94.30
2017-12-10T23:58:55.833Z,94.60
